sensor_id;sensor_type;location;lat;lon;timestamp;P1;durP1;ratioP1;P2;durP2;ratioP2
3922;SDS011;1976;51.694;6.256;2023-05-02T01:30:46;16.60;;;9.50;;
3922;SDS011;1976;51.694;6.256;2023-05-02T01:33:14;19.33;;;8.67;;
3922;SDS011;1976;51.694;6.256;2023-05-02T01:35:42;15.20;;;7.67;;
3922;SDS011;1976;51.694;6.256;2023-05-02T01:38:08;17.83;;;8.50;;
3922;SDS011;1976;51.694;6.256;2023-05-02T01:40:34;12.93;;;8.20;;
3922;SDS011;1976;51.694;6.256;2023-05-02T01:43:01;14.87;;;7.40;;
3922;SDS011;1976;51.694;6.256;2023-05-02T01:45:29;13.90;;;7.50;;
3922;SDS011;1976;51.694;6.256;2023-05-02T01:47:55;13.50;;;7.73;;
3922;SDS011;1976;51.694;6.256;2023-05-02T01:50:23;15.20;;;8.17;;
3922;SDS011;1976;51.694;6.256;2023-05-02T01:52:50;12.90;;;7.77;;
3922;SDS011;1976;51.694;6.256;2023-05-02T01:55:18;15.43;;;7.67;;
3922;SDS011;1976;51.694;6.256;2023-05-02T01:57:45;13.73;;;8.20;;
3922;SDS011;1976;51.694;6.256;2023-05-02T02:00:11;13.07;;;7.90;;
3922;SDS011;1976;51.694;6.256;2023-05-02T02:02:38;14.07;;;7.87;;
3922;SDS011;1976;51.694;6.256;2023-05-02T02:05:06;17.70;;;9.67;;
3922;SDS011;1976;51.694;6.256;2023-05-02T02:07:32;14.80;;;8.40;;
3922;SDS011;1976;51.694;6.256;2023-05-02T02:09:58;15.13;;;7.50;;
3922;SDS011;1976;51.694;6.256;2023-05-02T02:12:30;13.80;;;8.53;;
3922;SDS011;1976;51.694;6.256;2023-05-02T02:14:59;24.03;;;9.50;;
3922;SDS011;1976;51.694;6.256;2023-05-02T02:17:48;17.00;;;9.30;;
3922;SDS011;1976;51.694;6.256;2023-05-02T02:20:19;18.33;;;9.00;;
3922;SDS011;1976;51.694;6.256;2023-05-02T02:22:46;16.33;;;8.03;;
3922;SDS011;1976;51.694;6.256;2023-05-02T02:25:13;19.43;;;8.47;;
3922;SDS011;1976;51.694;6.256;2023-05-02T02:27:40;20.33;;;9.57;;
3922;SDS011;1976;51.694;6.256;2023-05-02T02:30:07;15.90;;;8.30;;
3922;SDS011;1976;51.694;6.256;2023-05-02T02:32:33;29.07;;;9.40;;
3922;SDS011;1976;51.694;6.256;2023-05-02T02:34:59;14.93;;;9.60;;
3922;SDS011;1976;51.694;6.256;2023-05-02T02:37:28;20.23;;;9.87;;
3922;SDS011;1976;51.694;6.256;2023-05-02T02:40:03;20.53;;;11.00;;
3922;SDS011;1976;51.694;6.256;2023-05-02T02:45:26;17.13;;;9.90;;
3922;SDS011;1976;51.694;6.256;2023-05-02T02:48:01;23.60;;;11.63;;
3922;SDS011;1976;51.694;6.256;2023-05-02T02:50:30;20.87;;;11.97;;
3922;SDS011;1976;51.694;6.256;2023-05-02T02:53:16;28.57;;;12.70;;
3922;SDS011;1976;51.694;6.256;2023-05-02T02:55:54;25.80;;;13.87;;
3922;SDS011;1976;51.694;6.256;2023-05-02T03:00:51;25.70;;;14.93;;
3922;SDS011;1976;51.694;6.256;2023-05-02T03:03:17;22.83;;;13.40;;
3922;SDS011;1976;51.694;6.256;2023-05-02T03:05:45;19.23;;;12.40;;
3922;SDS011;1976;51.694;6.256;2023-05-02T03:08:11;32.10;;;13.57;;
3922;SDS011;1976;51.694;6.256;2023-05-02T03:10:37;25.30;;;13.70;;
3922;SDS011;1976;51.694;6.256;2023-05-02T03:13:03;31.87;;;13.90;;
3922;SDS011;1976;51.694;6.256;2023-05-02T03:18:07;30.47;;;14.37;;
3922;SDS011;1976;51.694;6.256;2023-05-02T03:20:33;31.73;;;14.30;;
3922;SDS011;1976;51.694;6.256;2023-05-02T03:22:58;29.63;;;15.27;;
3922;SDS011;1976;51.694;6.256;2023-05-02T03:25:24;26.47;;;15.10;;
3922;SDS011;1976;51.694;6.256;2023-05-02T03:27:50;32.77;;;16.20;;
3922;SDS011;1976;51.694;6.256;2023-05-02T03:30:16;27.80;;;14.87;;
3922;SDS011;1976;51.694;6.256;2023-05-02T03:32:42;26.57;;;14.03;;
3922;SDS011;1976;51.694;6.256;2023-05-02T03:35:08;28.73;;;13.40;;
3922;SDS011;1976;51.694;6.256;2023-05-02T03:37:34;27.83;;;13.40;;
3922;SDS011;1976;51.694;6.256;2023-05-02T03:40:00;24.53;;;13.87;;
3922;SDS011;1976;51.694;6.256;2023-05-02T03:42:25;23.20;;;12.43;;
3922;SDS011;1976;51.694;6.256;2023-05-02T03:44:52;8.57;;;5.00;;
3922;SDS011;1976;51.694;6.256;2023-05-02T03:47:18;12.87;;;4.50;;
3922;SDS011;1976;51.694;6.256;2023-05-02T03:49:44;12.23;;;4.97;;
3922;SDS011;1976;51.694;6.256;2023-05-02T03:52:10;13.83;;;3.83;;
3922;SDS011;1976;51.694;6.256;2023-05-02T03:54:36;11.17;;;3.63;;
3922;SDS011;1976;51.694;6.256;2023-05-02T03:57:02;12.23;;;2.73;;
3922;SDS011;1976;51.694;6.256;2023-05-02T03:59:31;8.47;;;3.53;;
3922;SDS011;1976;51.694;6.256;2023-05-02T04:01:58;9.63;;;3.50;;
3922;SDS011;1976;51.694;6.256;2023-05-02T04:04:24;8.83;;;3.47;;
3922;SDS011;1976;51.694;6.256;2023-05-02T04:06:49;7.37;;;3.70;;
3922;SDS011;1976;51.694;6.256;2023-05-02T04:09:15;15.77;;;3.80;;
3922;SDS011;1976;51.694;6.256;2023-05-02T04:11:43;13.20;;;3.10;;
3922;SDS011;1976;51.694;6.256;2023-05-02T04:14:09;7.23;;;3.17;;
3922;SDS011;1976;51.694;6.256;2023-05-02T04:16:35;10.87;;;3.00;;
3922;SDS011;1976;51.694;6.256;2023-05-02T04:19:01;16.63;;;3.50;;
3922;SDS011;1976;51.694;6.256;2023-05-02T04:21:27;8.53;;;3.47;;
3922;SDS011;1976;51.694;6.256;2023-05-02T04:27:11;9.60;;;3.50;;
3922;SDS011;1976;51.694;6.256;2023-05-02T04:29:37;8.50;;;2.93;;
3922;SDS011;1976;51.694;6.256;2023-05-02T04:32:03;8.93;;;2.90;;
3922;SDS011;1976;51.694;6.256;2023-05-02T04:34:29;6.90;;;2.90;;
3922;SDS011;1976;51.694;6.256;2023-05-02T04:36:55;19.77;;;3.27;;
3922;SDS011;1976;51.694;6.256;2023-05-02T04:39:21;9.13;;;3.13;;
3922;SDS011;1976;51.694;6.256;2023-05-02T04:41:47;7.73;;;3.50;;
3922;SDS011;1976;51.694;6.256;2023-05-02T04:44:13;11.50;;;3.77;;
3922;SDS011;1976;51.694;6.256;2023-05-02T04:46:39;37.47;;;4.00;;
3922;SDS011;1976;51.694;6.256;2023-05-02T04:49:04;12.60;;;3.53;;
3922;SDS011;1976;51.694;6.256;2023-05-02T04:51:30;16.00;;;4.57;;
3922;SDS011;1976;51.694;6.256;2023-05-02T04:53:56;14.03;;;3.70;;
3922;SDS011;1976;51.694;6.256;2023-05-02T04:56:22;16.97;;;3.27;;
3922;SDS011;1976;51.694;6.256;2023-05-02T04:58:48;6.00;;;3.40;;
3922;SDS011;1976;51.694;6.256;2023-05-02T05:01:14;8.57;;;3.20;;
3922;SDS011;1976;51.694;6.256;2023-05-02T05:03:40;15.23;;;3.40;;
3922;SDS011;1976;51.694;6.256;2023-05-02T05:06:06;14.47;;;3.47;;
3922;SDS011;1976;51.694;6.256;2023-05-02T05:08:32;7.53;;;3.10;;
3922;SDS011;1976;51.694;6.256;2023-05-02T05:10:58;9.20;;;2.83;;
3922;SDS011;1976;51.694;6.256;2023-05-02T05:13:24;11.97;;;2.80;;
3922;SDS011;1976;51.694;6.256;2023-05-02T05:15:50;10.20;;;3.23;;
3922;SDS011;1976;51.694;6.256;2023-05-02T05:18:16;18.83;;;2.73;;
3922;SDS011;1976;51.694;6.256;2023-05-02T05:20:42;6.30;;;3.10;;
3922;SDS011;1976;51.694;6.256;2023-05-02T05:23:08;5.10;;;2.63;;
3922;SDS011;1976;51.694;6.256;2023-05-02T05:25:34;10.93;;;2.07;;
3922;SDS011;1976;51.694;6.256;2023-05-02T05:28:00;6.50;;;2.47;;
3922;SDS011;1976;51.694;6.256;2023-05-02T05:30:26;10.33;;;3.03;;
3922;SDS011;1976;51.694;6.256;2023-05-02T05:32:52;9.00;;;3.17;;
3922;SDS011;1976;51.694;6.256;2023-05-02T05:35:18;4.60;;;2.63;;
3922;SDS011;1976;51.694;6.256;2023-05-02T05:37:44;9.47;;;2.33;;
3922;SDS011;1976;51.694;6.256;2023-05-02T05:40:10;8.70;;;2.37;;
3922;SDS011;1976;51.694;6.256;2023-05-02T05:42:36;6.20;;;2.53;;
3922;SDS011;1976;51.694;6.256;2023-05-02T05:45:02;14.87;;;3.23;;
3922;SDS011;1976;51.694;6.256;2023-05-02T05:47:28;9.93;;;2.47;;
3922;SDS011;1976;51.694;6.256;2023-05-02T05:49:54;15.67;;;3.53;;
3922;SDS011;1976;51.694;6.256;2023-05-02T05:52:20;10.20;;;3.10;;
3922;SDS011;1976;51.694;6.256;2023-05-02T06:00:53;8.57;;;3.07;;
3922;SDS011;1976;51.694;6.256;2023-05-02T06:03:19;8.93;;;2.70;;
3922;SDS011;1976;51.694;6.256;2023-05-02T06:05:45;15.53;;;2.57;;
3922;SDS011;1976;51.694;6.256;2023-05-02T06:08:11;14.70;;;2.80;;
3922;SDS011;1976;51.694;6.256;2023-05-02T06:10:37;5.27;;;2.00;;
3922;SDS011;1976;51.694;6.256;2023-05-02T06:13:03;6.87;;;1.90;;
3922;SDS011;1976;51.694;6.256;2023-05-02T06:15:31;6.00;;;1.97;;
3922;SDS011;1976;51.694;6.256;2023-05-02T06:17:58;8.30;;;3.13;;
3922;SDS011;1976;51.694;6.256;2023-05-02T06:20:24;6.20;;;1.97;;
3922;SDS011;1976;51.694;6.256;2023-05-02T06:22:50;12.57;;;2.53;;
3922;SDS011;1976;51.694;6.256;2023-05-02T06:25:16;2.53;;;2.27;;
3922;SDS011;1976;51.694;6.256;2023-05-02T06:27:42;10.93;;;2.80;;
3922;SDS011;1976;51.694;6.256;2023-05-02T06:30:08;6.00;;;2.30;;
3922;SDS011;1976;51.694;6.256;2023-05-02T06:32:34;15.43;;;2.80;;
3922;SDS011;1976;51.694;6.256;2023-05-02T06:35:00;15.57;;;2.53;;
3922;SDS011;1976;51.694;6.256;2023-05-02T06:37:26;4.33;;;2.27;;
3922;SDS011;1976;51.694;6.256;2023-05-02T06:39:51;11.13;;;2.83;;
3922;SDS011;1976;51.694;6.256;2023-05-02T06:42:17;15.80;;;2.60;;
3922;SDS011;1976;51.694;6.256;2023-05-02T06:44:43;9.73;;;2.77;;
3922;SDS011;1976;51.694;6.256;2023-05-02T06:47:09;13.60;;;2.90;;
3922;SDS011;1976;51.694;6.256;2023-05-02T06:49:35;15.60;;;4.13;;
3922;SDS011;1976;51.694;6.256;2023-05-02T06:52:01;3.50;;;2.20;;
3922;SDS011;1976;51.694;6.256;2023-05-02T06:54:28;8.60;;;2.90;;
3922;SDS011;1976;51.694;6.256;2023-05-02T06:56:54;10.50;;;3.40;;
3922;SDS011;1976;51.694;6.256;2023-05-02T06:59:20;17.43;;;3.30;;
3922;SDS011;1976;51.694;6.256;2023-05-02T07:01:46;15.97;;;2.53;;
3922;SDS011;1976;51.694;6.256;2023-05-02T07:04:12;15.20;;;3.20;;
3922;SDS011;1976;51.694;6.256;2023-05-02T07:06:38;5.63;;;2.23;;
3922;SDS011;1976;51.694;6.256;2023-05-02T07:09:04;7.87;;;2.63;;
3922;SDS011;1976;51.694;6.256;2023-05-02T07:11:30;11.60;;;2.30;;
3922;SDS011;1976;51.694;6.256;2023-05-02T07:13:57;11.50;;;3.47;;
3922;SDS011;1976;51.694;6.256;2023-05-02T07:16:23;5.20;;;1.90;;
3922;SDS011;1976;51.694;6.256;2023-05-02T07:18:49;2.63;;;1.60;;
3922;SDS011;1976;51.694;6.256;2023-05-02T07:21:15;5.97;;;2.10;;
3922;SDS011;1976;51.694;6.256;2023-05-02T07:23:43;7.70;;;1.87;;
3922;SDS011;1976;51.694;6.256;2023-05-02T07:26:09;15.83;;;2.77;;
3922;SDS011;1976;51.694;6.256;2023-05-02T07:28:35;4.33;;;2.03;;
3922;SDS011;1976;51.694;6.256;2023-05-02T07:31:01;6.27;;;1.73;;
3922;SDS011;1976;51.694;6.256;2023-05-02T07:33:27;3.97;;;2.20;;
3922;SDS011;1976;51.694;6.256;2023-05-02T07:35:54;12.00;;;2.53;;
3922;SDS011;1976;51.694;6.256;2023-05-02T07:38:20;4.83;;;2.10;;
3922;SDS011;1976;51.694;6.256;2023-05-02T07:40:47;5.90;;;2.70;;
3922;SDS011;1976;51.694;6.256;2023-05-02T07:43:13;11.13;;;2.40;;
3922;SDS011;1976;51.694;6.256;2023-05-02T07:45:40;15.40;;;2.43;;
3922;SDS011;1976;51.694;6.256;2023-05-02T07:48:06;14.00;;;4.57;;
3922;SDS011;1976;51.694;6.256;2023-05-02T07:50:31;8.40;;;2.60;;
3922;SDS011;1976;51.694;6.256;2023-05-02T07:52:58;7.90;;;2.33;;
3922;SDS011;1976;51.694;6.256;2023-05-02T07:55:24;14.40;;;2.80;;
3922;SDS011;1976;51.694;6.256;2023-05-02T07:57:51;13.07;;;3.33;;
3922;SDS011;1976;51.694;6.256;2023-05-02T08:00:17;15.90;;;2.87;;
3922;SDS011;1976;51.694;6.256;2023-05-02T08:02:43;9.70;;;2.23;;
3922;SDS011;1976;51.694;6.256;2023-05-02T08:05:10;8.63;;;3.10;;
3922;SDS011;1976;51.694;6.256;2023-05-02T08:07:36;10.30;;;2.87;;
3922;SDS011;1976;51.694;6.256;2023-05-02T08:10:02;14.87;;;3.37;;
3922;SDS011;1976;51.694;6.256;2023-05-02T08:12:29;11.30;;;2.30;;
3922;SDS011;1976;51.694;6.256;2023-05-02T08:14:55;5.97;;;2.63;;
3922;SDS011;1976;51.694;6.256;2023-05-02T08:17:21;9.97;;;3.47;;
3922;SDS011;1976;51.694;6.256;2023-05-02T08:19:47;6.80;;;3.00;;
3922;SDS011;1976;51.694;6.256;2023-05-02T08:22:13;16.77;;;3.10;;
3922;SDS011;1976;51.694;6.256;2023-05-02T08:24:39;18.57;;;2.23;;
3922;SDS011;1976;51.694;6.256;2023-05-02T08:27:05;9.30;;;3.20;;
3922;SDS011;1976;51.694;6.256;2023-05-02T08:29:31;14.57;;;2.90;;
3922;SDS011;1976;51.694;6.256;2023-05-02T08:31:57;7.97;;;3.03;;
3922;SDS011;1976;51.694;6.256;2023-05-02T08:34:23;7.00;;;3.00;;
3922;SDS011;1976;51.694;6.256;2023-05-02T08:36:50;11.17;;;2.77;;
3922;SDS011;1976;51.694;6.256;2023-05-02T08:39:16;11.50;;;2.83;;
3922;SDS011;1976;51.694;6.256;2023-05-02T08:41:42;7.77;;;2.77;;
3922;SDS011;1976;51.694;6.256;2023-05-02T08:44:09;10.13;;;3.70;;
3922;SDS011;1976;51.694;6.256;2023-05-02T08:46:36;8.73;;;2.63;;
3922;SDS011;1976;51.694;6.256;2023-05-02T08:49:05;8.77;;;2.90;;
3922;SDS011;1976;51.694;6.256;2023-05-02T08:51:32;8.60;;;2.00;;
3922;SDS011;1976;51.694;6.256;2023-05-02T08:54:01;7.93;;;2.23;;
3922;SDS011;1976;51.694;6.256;2023-05-02T08:56:31;10.07;;;1.87;;
3922;SDS011;1976;51.694;6.256;2023-05-02T08:58:57;9.87;;;2.13;;
3922;SDS011;1976;51.694;6.256;2023-05-02T09:01:25;5.83;;;2.40;;
3922;SDS011;1976;51.694;6.256;2023-05-02T09:03:55;4.20;;;2.23;;
3922;SDS011;1976;51.694;6.256;2023-05-02T09:06:23;7.67;;;2.33;;
3922;SDS011;1976;51.694;6.256;2023-05-02T09:08:50;14.20;;;2.83;;
3922;SDS011;1976;51.694;6.256;2023-05-02T09:11:17;5.83;;;1.70;;
3922;SDS011;1976;51.694;6.256;2023-05-02T09:13:47;3.30;;;1.80;;
3922;SDS011;1976;51.694;6.256;2023-05-02T09:16:18;9.37;;;1.90;;
3922;SDS011;1976;51.694;6.256;2023-05-02T09:18:53;5.47;;;2.60;;
3922;SDS011;1976;51.694;6.256;2023-05-02T09:21:20;5.87;;;1.80;;
3922;SDS011;1976;51.694;6.256;2023-05-02T09:31:09;4.73;;;1.90;;
3922;SDS011;1976;51.694;6.256;2023-05-02T09:33:36;5.30;;;2.10;;
3922;SDS011;1976;51.694;6.256;2023-05-02T09:36:02;7.10;;;1.83;;
3922;SDS011;1976;51.694;6.256;2023-05-02T09:38:29;13.70;;;2.83;;
3922;SDS011;1976;51.694;6.256;2023-05-02T09:40:55;4.47;;;1.87;;
3922;SDS011;1976;51.694;6.256;2023-05-02T09:43:21;5.13;;;2.30;;
3922;SDS011;1976;51.694;6.256;2023-05-02T09:48:52;2.57;;;1.63;;
3922;SDS011;1976;51.694;6.256;2023-05-02T09:51:20;4.67;;;1.90;;
3922;SDS011;1976;51.694;6.256;2023-05-02T09:53:46;4.40;;;1.90;;
3922;SDS011;1976;51.694;6.256;2023-05-02T09:56:12;2.37;;;1.53;;
3922;SDS011;1976;51.694;6.256;2023-05-02T09:58:38;4.30;;;1.40;;
3922;SDS011;1976;51.694;6.256;2023-05-02T10:01:05;6.17;;;2.20;;
3922;SDS011;1976;51.694;6.256;2023-05-02T10:03:31;3.87;;;1.53;;
3922;SDS011;1976;51.694;6.256;2023-05-02T10:06:02;7.10;;;1.80;;
3922;SDS011;1976;51.694;6.256;2023-05-02T10:08:29;2.07;;;1.57;;
3922;SDS011;1976;51.694;6.256;2023-05-02T10:10:57;3.87;;;1.60;;
3922;SDS011;1976;51.694;6.256;2023-05-02T10:13:24;7.07;;;1.43;;
3922;SDS011;1976;51.694;6.256;2023-05-02T10:16:00;6.20;;;2.27;;
3922;SDS011;1976;51.694;6.256;2023-05-02T10:18:28;9.50;;;2.00;;
3922;SDS011;1976;51.694;6.256;2023-05-02T10:21:00;7.70;;;2.10;;
3922;SDS011;1976;51.694;6.256;2023-05-02T10:23:29;10.20;;;2.10;;
3922;SDS011;1976;51.694;6.256;2023-05-02T10:25:57;7.20;;;2.30;;
3922;SDS011;1976;51.694;6.256;2023-05-02T10:28:24;4.40;;;1.60;;
3922;SDS011;1976;51.694;6.256;2023-05-02T10:30:51;3.30;;;1.50;;
3922;SDS011;1976;51.694;6.256;2023-05-02T10:33:17;14.43;;;2.27;;
3922;SDS011;1976;51.694;6.256;2023-05-02T10:35:45;12.93;;;1.97;;
3922;SDS011;1976;51.694;6.256;2023-05-02T10:38:12;6.87;;;2.10;;
3922;SDS011;1976;51.694;6.256;2023-05-02T10:40:39;5.93;;;2.30;;
3922;SDS011;1976;51.694;6.256;2023-05-02T10:43:06;11.13;;;2.40;;
3922;SDS011;1976;51.694;6.256;2023-05-02T10:45:33;2.07;;;1.73;;
3922;SDS011;1976;51.694;6.256;2023-05-02T10:48:19;6.17;;;2.20;;
3922;SDS011;1976;51.694;6.256;2023-05-02T10:53:49;5.70;;;1.67;;
3922;SDS011;1976;51.694;6.256;2023-05-02T10:56:19;3.40;;;1.80;;
3922;SDS011;1976;51.694;6.256;2023-05-02T10:58:49;12.37;;;2.40;;
3922;SDS011;1976;51.694;6.256;2023-05-02T11:06:23;6.57;;;1.80;;
3922;SDS011;1976;51.694;6.256;2023-05-02T11:09:38;17.13;;;2.27;;
3922;SDS011;1976;51.694;6.256;2023-05-02T11:14:06;5.13;;;1.77;;
3922;SDS011;1976;51.694;6.256;2023-05-02T11:19:24;5.37;;;2.10;;
3922;SDS011;1976;51.694;6.256;2023-05-02T11:21:50;5.50;;;1.90;;
3922;SDS011;1976;51.694;6.256;2023-05-02T11:29:50;5.40;;;1.90;;
3922;SDS011;1976;51.694;6.256;2023-05-02T11:32:17;6.70;;;2.23;;
3922;SDS011;1976;51.694;6.256;2023-05-02T11:34:43;4.20;;;1.80;;
3922;SDS011;1976;51.694;6.256;2023-05-02T11:37:10;3.67;;;1.80;;
3922;SDS011;1976;51.694;6.256;2023-05-02T11:39:36;4.87;;;2.03;;
3922;SDS011;1976;51.694;6.256;2023-05-02T11:42:02;9.33;;;1.83;;
3922;SDS011;1976;51.694;6.256;2023-05-02T11:44:28;1.53;;;1.23;;
3922;SDS011;1976;51.694;6.256;2023-05-02T11:46:54;5.23;;;1.80;;
3922;SDS011;1976;51.694;6.256;2023-05-02T11:49:20;4.40;;;1.60;;
3922;SDS011;1976;51.694;6.256;2023-05-02T11:51:46;4.10;;;1.53;;
3922;SDS011;1976;51.694;6.256;2023-05-02T11:54:19;9.60;;;1.40;;
3922;SDS011;1976;51.694;6.256;2023-05-02T11:56:48;6.67;;;2.40;;
3922;SDS011;1976;51.694;6.256;2023-05-02T11:59:14;6.53;;;2.17;;
3922;SDS011;1976;51.694;6.256;2023-05-02T12:01:47;18.83;;;2.73;;
3922;SDS011;1976;51.694;6.256;2023-05-02T12:04:13;7.17;;;1.90;;
3922;SDS011;1976;51.694;6.256;2023-05-02T12:06:52;4.07;;;2.07;;
3922;SDS011;1976;51.694;6.256;2023-05-02T12:09:20;8.13;;;1.70;;
3922;SDS011;1976;51.694;6.256;2023-05-02T12:11:52;3.20;;;1.63;;
3922;SDS011;1976;51.694;6.256;2023-05-02T12:14:29;4.37;;;1.73;;
3922;SDS011;1976;51.694;6.256;2023-05-02T12:16:57;6.77;;;2.00;;
3922;SDS011;1976;51.694;6.256;2023-05-02T12:19:24;5.70;;;2.23;;
3922;SDS011;1976;51.694;6.256;2023-05-02T12:21:50;3.23;;;1.47;;
3922;SDS011;1976;51.694;6.256;2023-05-02T12:24:16;2.13;;;1.37;;
3922;SDS011;1976;51.694;6.256;2023-05-02T12:26:42;2.03;;;1.57;;
3922;SDS011;1976;51.694;6.256;2023-05-02T12:29:08;3.27;;;1.40;;
3922;SDS011;1976;51.694;6.256;2023-05-02T12:31:34;3.80;;;1.50;;
3922;SDS011;1976;51.694;6.256;2023-05-02T12:34:01;3.07;;;1.43;;
3922;SDS011;1976;51.694;6.256;2023-05-02T12:36:27;4.47;;;1.80;;
3922;SDS011;1976;51.694;6.256;2023-05-02T12:38:53;9.20;;;1.70;;
3922;SDS011;1976;51.694;6.256;2023-05-02T12:41:36;3.27;;;1.43;;
3922;SDS011;1976;51.694;6.256;2023-05-02T12:44:03;1.50;;;1.40;;
3922;SDS011;1976;51.694;6.256;2023-05-02T12:46:30;7.23;;;2.83;;
3922;SDS011;1976;51.694;6.256;2023-05-02T12:51:33;6.93;;;1.57;;
3922;SDS011;1976;51.694;6.256;2023-05-02T12:54:00;3.70;;;1.60;;
3922;SDS011;1976;51.694;6.256;2023-05-02T12:56:26;3.47;;;1.40;;
3922;SDS011;1976;51.694;6.256;2023-05-02T12:58:56;1.60;;;1.20;;
3922;SDS011;1976;51.694;6.256;2023-05-02T13:01:28;4.63;;;1.60;;
3922;SDS011;1976;51.694;6.256;2023-05-02T13:03:55;4.53;;;1.93;;
3922;SDS011;1976;51.694;6.256;2023-05-02T13:06:21;2.70;;;1.80;;
3922;SDS011;1976;51.694;6.256;2023-05-02T13:08:46;2.10;;;1.40;;
3922;SDS011;1976;51.694;6.256;2023-05-02T13:11:12;2.43;;;1.40;;
3922;SDS011;1976;51.694;6.256;2023-05-02T13:13:38;3.67;;;1.57;;
3922;SDS011;1976;51.694;6.256;2023-05-02T13:16:04;3.90;;;1.97;;
3922;SDS011;1976;51.694;6.256;2023-05-02T13:18:31;6.40;;;2.30;;
3922;SDS011;1976;51.694;6.256;2023-05-02T13:20:57;7.90;;;2.23;;
3922;SDS011;1976;51.694;6.256;2023-05-02T13:23:23;9.77;;;2.20;;
3922;SDS011;1976;51.694;6.256;2023-05-02T13:25:49;11.70;;;1.77;;
3922;SDS011;1976;51.694;6.256;2023-05-02T13:28:16;2.40;;;1.90;;
3922;SDS011;1976;51.694;6.256;2023-05-02T13:30:42;2.60;;;1.80;;
3922;SDS011;1976;51.694;6.256;2023-05-02T13:33:08;9.83;;;2.00;;
3922;SDS011;1976;51.694;6.256;2023-05-02T13:35:34;2.83;;;1.80;;
3922;SDS011;1976;51.694;6.256;2023-05-02T13:38:00;7.43;;;2.10;;
3922;SDS011;1976;51.694;6.256;2023-05-02T13:40:27;4.77;;;2.07;;
3922;SDS011;1976;51.694;6.256;2023-05-02T13:42:53;4.20;;;1.90;;
3922;SDS011;1976;51.694;6.256;2023-05-02T13:45:19;2.77;;;1.50;;
3922;SDS011;1976;51.694;6.256;2023-05-02T13:47:45;3.63;;;2.00;;
3922;SDS011;1976;51.694;6.256;2023-05-02T13:50:11;3.60;;;2.03;;
3922;SDS011;1976;51.694;6.256;2023-05-02T13:52:37;5.40;;;1.80;;
3922;SDS011;1976;51.694;6.256;2023-05-02T13:55:02;7.87;;;2.17;;
3922;SDS011;1976;51.694;6.256;2023-05-02T13:57:28;6.90;;;1.60;;
3922;SDS011;1976;51.694;6.256;2023-05-02T13:59:54;4.40;;;1.73;;
3922;SDS011;1976;51.694;6.256;2023-05-02T14:02:20;2.90;;;1.70;;
3922;SDS011;1976;51.694;6.256;2023-05-02T14:04:46;3.80;;;1.70;;
3922;SDS011;1976;51.694;6.256;2023-05-02T14:07:12;4.50;;;1.80;;
3922;SDS011;1976;51.694;6.256;2023-05-02T14:09:38;5.73;;;2.20;;
3922;SDS011;1976;51.694;6.256;2023-05-02T14:12:04;5.30;;;2.00;;
3922;SDS011;1976;51.694;6.256;2023-05-02T14:14:30;6.33;;;2.20;;
3922;SDS011;1976;51.694;6.256;2023-05-02T14:16:56;4.67;;;1.97;;
3922;SDS011;1976;51.694;6.256;2023-05-02T14:19:22;5.50;;;2.03;;
3922;SDS011;1976;51.694;6.256;2023-05-02T14:21:48;3.17;;;1.97;;
3922;SDS011;1976;51.694;6.256;2023-05-02T14:24:14;2.23;;;1.67;;
3922;SDS011;1976;51.694;6.256;2023-05-02T14:26:40;3.93;;;2.37;;
3922;SDS011;1976;51.694;6.256;2023-05-02T14:29:06;3.43;;;2.10;;
3922;SDS011;1976;51.694;6.256;2023-05-02T14:31:33;14.37;;;2.33;;
3922;SDS011;1976;51.694;6.256;2023-05-02T14:33:58;5.10;;;2.13;;
3922;SDS011;1976;51.694;6.256;2023-05-02T14:36:24;8.20;;;2.80;;
3922;SDS011;1976;51.694;6.256;2023-05-02T14:38:51;4.03;;;2.43;;
3922;SDS011;1976;51.694;6.256;2023-05-02T14:41:16;5.03;;;2.00;;
3922;SDS011;1976;51.694;6.256;2023-05-02T14:43:42;5.33;;;2.50;;
3922;SDS011;1976;51.694;6.256;2023-05-02T14:46:08;6.30;;;2.00;;
3922;SDS011;1976;51.694;6.256;2023-05-02T14:48:34;8.57;;;2.80;;
3922;SDS011;1976;51.694;6.256;2023-05-02T14:51:01;4.47;;;3.23;;
3922;SDS011;1976;51.694;6.256;2023-05-02T14:53:28;7.10;;;2.33;;
3922;SDS011;1976;51.694;6.256;2023-05-02T14:55:53;6.27;;;2.50;;
3922;SDS011;1976;51.694;6.256;2023-05-02T14:58:19;7.90;;;2.47;;
3922;SDS011;1976;51.694;6.256;2023-05-02T15:00:45;8.10;;;2.37;;
3922;SDS011;1976;51.694;6.256;2023-05-02T15:03:11;9.87;;;2.43;;
3922;SDS011;1976;51.694;6.256;2023-05-02T15:05:38;4.17;;;2.20;;
3922;SDS011;1976;51.694;6.256;2023-05-02T15:08:04;9.30;;;2.93;;
3922;SDS011;1976;51.694;6.256;2023-05-02T15:13:52;7.77;;;2.60;;
3922;SDS011;1976;51.694;6.256;2023-05-02T15:16:18;10.03;;;2.97;;
3922;SDS011;1976;51.694;6.256;2023-05-02T15:18:44;6.90;;;2.67;;
3922;SDS011;1976;51.694;6.256;2023-05-02T15:21:09;7.03;;;2.57;;
3922;SDS011;1976;51.694;6.256;2023-05-02T15:23:36;6.00;;;3.20;;
3922;SDS011;1976;51.694;6.256;2023-05-02T15:26:02;9.03;;;2.80;;
3922;SDS011;1976;51.694;6.256;2023-05-02T15:28:28;8.27;;;3.93;;
3922;SDS011;1976;51.694;6.256;2023-05-02T15:30:55;14.90;;;3.03;;
3922;SDS011;1976;51.694;6.256;2023-05-02T15:33:20;6.30;;;3.03;;
3922;SDS011;1976;51.694;6.256;2023-05-02T15:35:53;3.63;;;2.90;;
3922;SDS011;1976;51.694;6.256;2023-05-02T15:38:20;7.10;;;3.70;;
3922;SDS011;1976;51.694;6.256;2023-05-02T15:41:07;8.47;;;3.10;;
3922;SDS011;1976;51.694;6.256;2023-05-02T15:43:32;6.47;;;3.10;;
3922;SDS011;1976;51.694;6.256;2023-05-02T15:45:58;10.60;;;3.60;;
3922;SDS011;1976;51.694;6.256;2023-05-02T15:48:28;10.83;;;2.83;;
3922;SDS011;1976;51.694;6.256;2023-05-02T15:50:55;6.20;;;2.30;;
3922;SDS011;1976;51.694;6.256;2023-05-02T15:53:21;13.67;;;2.90;;
3922;SDS011;1976;51.694;6.256;2023-05-02T15:55:48;7.60;;;3.57;;
3922;SDS011;1976;51.694;6.256;2023-05-02T15:58:15;5.17;;;3.00;;
3922;SDS011;1976;51.694;6.256;2023-05-02T16:00:41;9.80;;;2.80;;
3922;SDS011;1976;51.694;6.256;2023-05-02T16:03:07;6.23;;;2.73;;
3922;SDS011;1976;51.694;6.256;2023-05-02T16:05:33;5.87;;;2.60;;
3922;SDS011;1976;51.694;6.256;2023-05-02T16:08:00;6.37;;;2.87;;
3922;SDS011;1976;51.694;6.256;2023-05-02T16:10:26;7.93;;;3.10;;
3922;SDS011;1976;51.694;6.256;2023-05-02T16:12:51;5.93;;;2.60;;
3922;SDS011;1976;51.694;6.256;2023-05-02T16:15:17;5.00;;;2.63;;
3922;SDS011;1976;51.694;6.256;2023-05-02T16:17:44;6.50;;;3.17;;
3922;SDS011;1976;51.694;6.256;2023-05-02T16:20:09;7.20;;;3.40;;
3922;SDS011;1976;51.694;6.256;2023-05-02T16:22:35;4.90;;;2.97;;
3922;SDS011;1976;51.694;6.256;2023-05-02T16:25:02;15.70;;;3.43;;
3922;SDS011;1976;51.694;6.256;2023-05-02T16:27:27;10.03;;;3.00;;
3922;SDS011;1976;51.694;6.256;2023-05-02T16:29:53;5.37;;;3.10;;
3922;SDS011;1976;51.694;6.256;2023-05-02T16:32:19;6.80;;;2.87;;
3922;SDS011;1976;51.694;6.256;2023-05-02T16:34:47;11.30;;;2.43;;
3922;SDS011;1976;51.694;6.256;2023-05-02T16:37:12;7.60;;;3.20;;
3922;SDS011;1976;51.694;6.256;2023-05-02T16:39:38;11.20;;;2.60;;
3922;SDS011;1976;51.694;6.256;2023-05-02T16:42:04;11.23;;;3.30;;
3922;SDS011;1976;51.694;6.256;2023-05-02T16:44:29;8.90;;;2.80;;
3922;SDS011;1976;51.694;6.256;2023-05-02T16:46:56;10.60;;;2.77;;
3922;SDS011;1976;51.694;6.256;2023-05-02T16:49:22;5.70;;;2.03;;
3922;SDS011;1976;51.694;6.256;2023-05-02T16:51:47;8.23;;;3.20;;
3922;SDS011;1976;51.694;6.256;2023-05-02T16:54:16;9.83;;;2.77;;
3922;SDS011;1976;51.694;6.256;2023-05-02T16:56:41;9.47;;;3.07;;
3922;SDS011;1976;51.694;6.256;2023-05-02T16:59:07;3.90;;;2.20;;
3922;SDS011;1976;51.694;6.256;2023-05-02T17:01:34;12.40;;;3.10;;
3922;SDS011;1976;51.694;6.256;2023-05-02T17:04:00;7.30;;;3.30;;
3922;SDS011;1976;51.694;6.256;2023-05-02T17:06:26;10.13;;;2.90;;
3922;SDS011;1976;51.694;6.256;2023-05-02T17:08:52;8.50;;;2.80;;
3922;SDS011;1976;51.694;6.256;2023-05-02T17:11:17;4.07;;;2.80;;
3922;SDS011;1976;51.694;6.256;2023-05-02T17:13:44;5.70;;;2.63;;
3922;SDS011;1976;51.694;6.256;2023-05-02T17:16:11;7.57;;;2.93;;
3922;SDS011;1976;51.694;6.256;2023-05-02T17:18:37;8.07;;;3.90;;
3922;SDS011;1976;51.694;6.256;2023-05-02T17:21:04;12.93;;;3.50;;
3922;SDS011;1976;51.694;6.256;2023-05-02T17:23:30;10.20;;;2.60;;
3922;SDS011;1976;51.694;6.256;2023-05-02T17:25:56;7.53;;;3.17;;
3922;SDS011;1976;51.694;6.256;2023-05-02T17:28:22;14.13;;;3.03;;
3922;SDS011;1976;51.694;6.256;2023-05-02T17:30:48;9.07;;;3.30;;